Latest Weather Observations for Karratha

IDW60801

Issued at 5:14 pm WST Tuesday 31 March 2015 (issued every 30 minutes, with the page automatically refreshed every 10 minutes)

About weather observations | Map of weather stations | Latest weather observations for WA | Other Formats
Station Details ID: 004083 Name: KARRATHA AERO Lat: -20.71 Lon: 116.77 Height: 5.3 m
Data from the previous 72 hours. | See also: Recent months at Karratha
Date/Time
WST
Temp
°C
App
Temp
°C
Dew
Point
Rel
Hum
%
Delta-T
°C
Wind Press
QNH
hPa
Press
MSL
hPa
Rain
since 9 am
mm
Dir
 
Spd
km/h
Gust
km/h
Spd
kts
Gust
kts
31/05:00pm 31.9 35.3 25.2 67 4.7 WNW 17 26 9 14 1011.9 1011.9 0.0
31/04:30pm 31.4 36.3 26.4 75 3.6 NW 13 20 7 11 1011.8 1011.8 0.0
31/04:00pm 32.0 37.1 27.2 76 3.5 NW 15 20 8 11 1011.7 1011.7 0.0
31/03:30pm 32.3 36.9 26.6 72 4.1 NNW 15 20 8 11 1011.6 1011.6 0.0
31/03:00pm 32.6 36.5 25.4 66 5.1 NNW 15 20 8 11 1011.5 1011.5 0.0
31/02:30pm 32.1 37.3 26.9 74 3.8 N 13 20 7 11 1011.6 1011.6 0.0
31/02:00pm 31.5 36.7 27.4 79 3.0 NE 15 22 8 12 1011.9 1011.9 0.0
31/01:30pm 31.7 36.5 27.4 78 3.1 NE 17 20 9 11 1012.2 1012.2 0.0
31/01:00pm 31.5 37.1 27.4 79 3.0 NE 13 19 7 10 1012.5 1012.5 0.0
31/12:30pm 31.7 37.8 27.6 79 3.0 ENE 11 17 6 9 1012.8 1012.8 0.0
31/12:00pm 31.3 37.0 27.0 78 3.1 NE 11 17 6 9 1013.1 1013.1 0.0
31/11:30am 31.0 37.0 26.9 79 3.0 NE 9 17 5 9 1013.6 1013.6 0.0
31/11:00am 30.1 35.9 26.0 78 2.9 NNE 7 13 4 7 1014.0 1014.0 0.0
31/10:30am 29.6 35.1 25.6 79 2.8 E 7 17 4 9 1014.4 1014.4 0.0
31/10:00am 29.5 33.4 25.5 79 2.8 E 15 20 8 11 1014.7 1014.7 0.0
31/09:30am 28.7 33.1 25.1 81 2.5 E 11 15 6 8 1014.7 1014.7 0.0
31/09:00am 27.7 32.5 25.7 89 1.4 SE 11 13 6 7 1014.8 1014.8 10.4
31/08:30am 27.2 32.2 26.0 93 0.8 SSE 11 15 6 8 1014.4 1014.4 10.4
31/08:00am 26.3 31.4 25.6 96 0.5 SSE 9 11 5 6 1014.2 1014.2 10.4
31/07:30am 25.7 30.1 25.0 96 0.5 SSE 11 13 6 7 1013.9 1013.9 10.4
31/07:00am 26.2 32.3 24.4 90 1.2 CALM 0 0 0 0 1013.7 1013.7 10.4
31/06:30am 25.5 32.0 25.0 97 0.3 CALM 0 0 0 0 1013.6 1013.6 10.4
31/06:00am 25.0 30.8 24.5 97 0.3 ENE 2 7 1 4 1013.8 1013.8 10.4
31/05:30am 25.2 30.8 24.3 95 0.6 N 2 13 1 7 1013.1 1013.1 10.4
31/05:00am 25.2 27.8 24.0 93 0.8 N 17 26 9 14 1012.7 1012.7 9.8
31/04:30am 25.6 29.8 25.3 98 0.2 NNW 13 26 7 14 1012.6 1012.6 8.0
31/04:15am 25.7 31.7 25.5 99 0.1 SSE 4 7 2 4 1012.9 1012.9 3.8
31/04:00am 25.8 30.9 25.6 99 0.1 S 9 11 5 6 1012.6 1012.6 3.2
31/03:30am 26.0 31.2 25.7 98 0.2 S 9 11 5 6 1012.8 1012.8 2.8
31/03:09am 26.4 32.2 25.7 96 0.5 SSW 6 7 3 4 1013.1 1013.1 2.4
31/03:00am 26.4 32.0 25.5 95 0.6 SW 6 7 3 4 1013.0 1013.0 2.2
31/02:49am 26.4 32.7 25.4 94 0.7 SW 2 6 1 3 1012.9 1012.9 2.0
31/02:30am 26.2 31.5 25.0 93 0.8 SW 6 7 3 4 1012.6 1012.6 1.6
31/02:00am 26.5 31.9 25.1 92 1.0 WNW 6 9 3 5 1012.9 1012.9 1.0
31/01:30am 26.6 31.5 25.2 92 1.0 NW 9 11 5 6 1013.0 1013.0 0.4
31/01:00am 28.3 32.2 26.1 88 1.6 NW 17 24 9 13 1013.0 1013.0 0.2
31/12:30am 29.0 32.9 26.6 87 1.7 NNW 19 24 10 13 1013.3 1013.3 0.2
31/12:00am 29.1 33.8 26.7 87 1.7 N 15 22 8 12 1013.4 1013.4 0.2
 
Date/Time
WST
Temp
°C
App
Temp
°C
Dew
Point
Rel
Hum
%
Delta-T
°C
Wind Press
QNH
hPa
Press
MSL
hPa
Rain
since 9 am
mm
Dir
 
Spd
km/h
Gust
km/h
Spd
kts
Gust
kts
30/11:30pm 29.2 33.5 26.6 86 1.9 N 17 24 9 13 1013.6 1013.6 0.2
30/11:00pm 28.9 34.4 26.7 88 1.6 N 11 17 6 9 1013.6 1013.6 0.2
30/10:30pm 28.8 34.0 26.8 89 1.4 N 13 17 7 9 1013.4 1013.4 0.2
30/10:00pm 28.9 34.0 26.7 88 1.6 N 13 19 7 10 1013.5 1013.5 0.2
30/09:30pm 28.9 33.6 27.3 91 1.2 NNE 17 20 9 11 1013.7 1013.7 0.2
30/09:00pm 28.8 34.6 27.2 91 1.2 NE 11 15 6 8 1013.5 1013.5 0.2
30/08:30pm 28.9 34.0 26.7 88 1.6 NNE 13 17 7 9 1013.6 1013.6 0.2
30/08:00pm 28.7 32.9 26.5 88 1.6 NNE 17 24 9 13 1013.4 1013.4 0.2
30/07:30pm 28.7 32.7 26.7 89 1.4 NNE 19 24 10 13 1013.0 1013.0 0.2
30/07:00pm 28.4 33.0 26.6 90 1.3 NNE 15 22 8 12 1012.4 1012.4 0.2
30/06:30pm 28.4 31.7 26.0 87 1.7 NNE 20 26 11 14 1012.1 1012.1 0.0
30/06:00pm 29.2 32.4 25.8 82 2.4 NNE 20 28 11 15 1011.7 1011.7 0.0
30/05:30pm 29.1 32.9 26.7 87 1.7 NNE 20 28 11 15 1011.6 1011.6 0.0
30/05:00pm 29.2 31.8 26.6 86 1.9 NNE 26 33 14 18 1011.4 1011.4 0.0
30/04:30pm 29.3 32.5 26.5 85 2.0 NNE 22 30 12 16 1011.2 1011.2 0.0
30/04:00pm 29.4 32.1 26.2 83 2.3 NNE 24 30 13 16 1011.3 1011.3 0.0
30/03:30pm 29.5 32.1 26.1 82 2.4 NE 24 30 13 16 1011.3 1011.3 0.0
30/03:00pm 29.7 32.2 25.9 80 2.7 NNE 24 30 13 16 1011.3 1011.3 0.0
30/02:30pm 29.8 32.6 25.3 77 3.2 NNE 20 26 11 14 1011.5 1011.5 0.0
30/02:00pm 30.0 32.0 24.6 73 3.8 NNE 22 30 12 16 1012.1 1012.1 0.0
30/01:30pm 30.6 32.9 25.0 72 3.9 NE 22 28 12 15 1011.9 1011.9 0.0
30/01:00pm 31.0 32.5 24.4 68 4.6 NE 24 30 13 16 1011.6 1011.6 0.0
30/12:30pm 32.1 33.1 24.2 63 5.5 ENE 26 33 14 18 1011.8 1011.8 0.0
30/12:00pm 32.3 33.8 24.3 62 5.6 NE 24 32 13 17 1012.2 1012.2 0.0
30/11:30am 32.3 34.0 25.9 69 4.6 NE 28 35 15 19 1012.8 1012.8 0.0
30/11:00am 31.2 32.1 25.3 71 4.2 NE 30 37 16 20 1013.1 1013.1 0.0
30/10:30am 30.8 31.6 25.6 74 3.7 NE 32 39 17 21 1013.2 1013.2 0.0
30/10:00am 30.2 31.4 25.7 77 3.2 ENE 30 37 16 20 1013.0 1013.0 0.0
30/09:30am 28.9 32.7 26.5 87 1.7 ENE 19 26 10 14 1013.5 1013.5 0.0
30/09:00am 28.2 32.0 26.4 90 1.3 ENE 19 24 10 13 1013.5 1013.5 4.8
30/08:30am 26.7 29.7 25.5 93 0.8 ESE 20 26 11 14 1013.3 1013.3 4.8
30/08:00am 27.0 30.7 25.8 93 0.8 ENE 17 20 9 11 1013.4 1013.4 4.8
30/07:30am 26.1 29.1 25.6 97 0.4 ENE 20 28 11 15 1013.0 1013.0 4.8
30/07:19am 25.7 27.0 25.2 97 0.3 ENE 28 43 15 23 1012.9 1012.9 4.8
30/07:11am 25.9 29.0 25.4 97 0.3 E 19 43 10 23 1012.5 1012.5 4.6
30/07:00am 26.4 31.9 26.1 98 0.2 ENE 9 15 5 8 1012.6 1012.6 4.6
30/06:30am 25.3 27.9 24.6 96 0.5 ENE 19 24 10 13 1012.6 1012.6 4.6
30/06:00am 26.5 26.2 24.9 91 1.1 NE 35 46 19 25 1012.0 1012.0 4.4
30/05:30am 26.6 26.4 25.0 91 1.1 NE 35 44 19 24 1011.5 1011.5 4.4
30/05:06am 26.2 26.1 24.2 89 1.4 NE 32 37 17 20 1010.8 1010.8 4.4
30/05:02am 26.2 26.3 24.6 91 1.1 NE 32 39 17 21 1010.8 1010.8 4.4
30/05:00am 26.2 26.5 24.8 92 1.0 ENE 32 39 17 21 1010.8 1010.8 4.4
30/04:37am 25.2 26.0 24.5 96 0.5 NE 28 41 15 22 1011.0 1011.0 2.8
30/04:30am 25.7 25.9 25.0 96 0.5 ENE 33 41 18 22 1011.1 1011.1 1.6
30/04:29am 25.6 25.7 24.9 96 0.5 ENE 33 44 18 24 1011.0 1011.0 1.6
30/04:06am 25.1 21.8 23.9 93 0.8 E 48 67 26 36 1010.9 1010.9 1.0
30/04:04am 25.0 21.1 23.6 92 1.0 ENE 50 69 27 37 1010.9 1010.9 1.0
30/04:00am 25.9 23.1 23.2 85 1.8 ENE 43 69 23 37 1010.8 1010.8 0.6
30/03:55am 26.8 26.9 23.9 84 2.0 NE 30 57 16 31 1010.6 1010.6 0.6
30/03:30am 27.7 29.5 25.5 88 1.5 NE 26 33 14 18 1010.6 1010.6 0.6
30/03:06am 27.8 31.6 26.7 94 0.8 NE 20 28 11 15 1010.9 1010.9 0.6
30/03:00am 27.5 30.7 26.4 94 0.8 ENE 22 35 12 19 1010.6 1010.6 0.6
30/02:56am 27.2 28.8 25.8 92 1.0 ENE 28 46 15 25 1010.2 1010.2 0.6
30/02:50am 26.9 27.9 24.7 88 1.5 ENE 28 46 15 25 1010.0 1010.0 0.6
30/02:47am 27.0 28.0 24.1 84 2.0 ENE 26 46 14 25 1010.0 1010.0 0.4
30/02:30am 28.5 30.2 24.1 77 3.0 ESE 22 26 12 14 1010.4 1010.4 0.0
30/02:00am 28.6 30.6 23.9 75 3.2 ESE 20 28 11 15 1011.0 1011.0 0.0
30/01:30am 28.7 30.6 23.8 75 3.4 ESE 20 26 11 14 1011.3 1011.3 0.0
30/01:00am 29.0 30.9 23.7 73 3.7 ESE 20 26 11 14 1012.0 1012.0 0.0
30/12:30am 29.2 30.3 23.6 72 3.9 E 24 28 13 15 1012.2 1012.2 0.0
30/12:00am 29.2 30.5 24.1 74 3.5 E 24 30 13 16 1012.6 1012.6 0.0
 
Date/Time
WST
Temp
°C
App
Temp
°C
Dew
Point
Rel
Hum
%
Delta-T
°C
Wind Press
QNH
hPa
Press
MSL
hPa
Rain
since 9 am
mm
Dir
 
Spd
km/h
Gust
km/h
Spd
kts
Gust
kts
29/11:30pm 29.4 30.8 25.4 79 2.8 ENE 28 37 15 20 1012.6 1012.6 0.0
29/11:00pm 29.4 30.5 24.9 77 3.2 E 28 35 15 19 1012.9 1012.9 0.0
29/10:30pm 29.4 31.7 25.6 80 2.7 E 24 32 13 17 1013.3 1013.3 0.0
29/10:00pm 29.4 31.8 25.2 78 3.0 ENE 22 28 12 15 1013.4 1013.4 0.0
29/09:30pm 29.3 30.9 25.1 78 2.9 ENE 26 32 14 17 1013.3 1013.3 0.0
29/09:00pm 29.3 31.4 25.3 79 2.8 ENE 24 30 13 16 1013.3 1013.3 0.0
29/08:30pm 29.5 31.2 25.3 78 3.0 ENE 26 32 14 17 1013.2 1013.2 0.0
29/08:00pm 29.5 31.6 26.5 84 2.1 ENE 28 33 15 18 1012.8 1012.8 0.0
29/07:30pm 29.8 31.1 25.8 79 2.8 ENE 30 39 16 21 1012.6 1012.6 0.0
29/07:00pm 30.0 31.5 25.5 77 3.2 ENE 28 37 15 20 1012.1 1012.1 0.0
29/06:30pm 30.1 31.4 25.2 75 3.5 NE 28 37 15 20 1011.6 1011.6 0.0
29/06:00pm 30.4 31.3 25.2 74 3.7 NE 30 35 16 19 1011.0 1011.0 0.0
29/05:30pm 30.8 31.4 24.7 70 4.3 NE 30 39 16 21 1010.7 1010.7 0.0
29/05:00pm 31.8 33.1 24.1 63 5.4 NE 24 33 13 18 1010.4 1010.4 0.0
29/04:30pm 32.5 32.3 23.4 58 6.3 NE 30 39 16 21 1010.5 1010.5 0.0
29/04:00pm 32.8 34.4 25.1 64 5.5 NE 26 33 14 18 1010.3 1010.3 0.0
29/03:30pm 33.0 33.3 24.2 60 6.2 NE 30 39 16 21 1010.1 1010.1 0.0
29/03:00pm 33.7 33.7 23.7 56 7.0 NE 30 39 16 21 1009.7 1009.7 0.0
29/02:30pm 32.9 32.4 23.5 57 6.5 NE 32 44 17 24 1010.0 1010.0 0.0
29/02:00pm 33.7 33.5 23.4 55 7.2 NE 30 39 16 21 1010.1 1010.1 0.0
29/01:30pm 34.1 34.1 23.1 52 7.6 NE 28 35 15 19 1010.4 1010.4 0.0
29/01:00pm 33.0 33.2 22.7 54 7.1 NE 26 35 14 19 1010.9 1010.9 0.0
29/12:30pm 34.1 33.6 21.5 47 8.5 NE 26 35 14 19 1011.4 1011.4 0.0
29/12:00pm 33.4 33.6 23.4 55 6.9 NE 28 33 15 18 1012.0 1012.0 0.0
29/11:30am 33.8 34.6 23.2 54 7.3 NE 24 30 13 16 1012.4 1012.4 0.0
29/11:00am 33.2 34.6 23.5 56 6.7 NE 22 30 12 16 1012.9 1012.9 0.0
29/10:30am 32.8 34.1 22.6 55 7.0 NE 20 26 11 14 1013.3 1013.3 0.0
29/10:00am 33.1 34.6 23.1 55 6.9 NE 20 24 11 13 1013.4 1013.4 0.0
29/09:30am 31.8 34.3 24.4 65 5.2 ENE 19 24 10 13 1013.2 1013.2 0.0
29/09:00am 31.7 35.8 25.8 71 4.2 ENE 15 20 8 11 1013.1 1013.1 0.0
29/08:30am 31.0 34.9 24.9 70 4.3 E 13 17 7 9 1012.9 1012.9 0.0
29/08:00am 30.0 33.2 23.7 69 4.4 E 13 17 7 9 1012.8 1012.8 0.0
29/07:30am 28.6 31.6 23.3 73 3.6 E 13 17 7 9 1012.4 1012.4 0.0
29/07:00am 27.8 31.2 23.4 77 3.0 E 11 13 6 7 1012.1 1012.1 0.0
29/06:30am 26.2 30.1 21.8 77 2.9 ESE 4 7 2 4 1011.9 1011.9 0.0
29/06:00am 26.2 29.5 21.4 75 3.2 NE 6 6 3 3 1011.7 1011.7 0.0
29/05:30am 26.8 30.8 20.6 69 4.1 CALM 0 0 0 0 1011.4 1011.4 0.0
29/05:00am 26.4 29.2 20.5 70 3.9 NE 6 7 3 4 1011.2 1011.2 0.0
29/04:30am 26.0 28.2 20.3 71 3.7 ENE 9 11 5 6 1011.0 1011.0 0.0
29/04:00am 26.3 28.8 19.9 68 4.2 SE 6 7 3 4 1010.7 1010.7 0.0
29/03:30am 27.2 30.0 20.5 67 4.4 SW 6 7 3 4 1010.5 1010.5 0.0
29/03:00am 28.2 31.1 21.0 65 4.8 W 7 9 4 5 1010.5 1010.5 0.0
29/02:30am 28.1 31.0 21.1 65 4.7 WSW 7 9 4 5 1010.5 1010.5 0.0
29/02:00am 28.4 31.5 21.4 66 4.7 W 7 11 4 6 1010.8 1010.8 0.0
29/01:30am 28.6 31.3 21.4 65 4.8 WSW 9 13 5 7 1011.0 1011.0 0.0
29/01:00am 28.6 31.0 21.6 66 4.7 WSW 11 13 6 7 1011.3 1011.3 0.0
29/12:30am 28.9 31.4 21.7 65 4.8 WSW 11 13 6 7 1011.6 1011.6 0.0
29/12:00am 29.4 31.8 21.6 63 5.2 WSW 11 13 6 7 1011.9 1011.9 0.0
 
Date/Time
WST
Temp
°C
App
Temp
°C
Dew
Point
Rel
Hum
%
Delta-T
°C
Wind Press
QNH
hPa
Press
MSL
hPa
Rain
since 9 am
mm
Dir
 
Spd
km/h
Gust
km/h
Spd
kts
Gust
kts
28/11:30pm 29.4 32.2 21.6 63 5.2 WSW 9 11 5 6 1012.3 1012.3 0.0
28/11:00pm 29.5 31.8 22.0 64 5.1 SW 13 15 7 8 1012.5 1012.5 0.0
28/10:30pm 29.4 32.5 22.9 68 4.4 SW 11 15 6 8 1012.8 1012.8 0.0
28/10:00pm 30.2 34.1 23.6 67 4.6 WNW 9 11 5 6 1012.8 1012.8 0.0
28/09:30pm 30.5 33.9 22.7 63 5.3 W 9 11 5 6 1012.7 1012.7 0.0
28/09:00pm 30.5 32.8 21.3 58 6.2 WSW 11 15 6 8 1012.8 1012.8 0.0
28/08:30pm 30.5 32.1 22.9 64 5.2 WSW 19 26 10 14 1012.7 1012.7 0.0
28/08:00pm 30.9 32.7 21.9 58 6.1 WSW 15 20 8 11 1011.9 1011.9 0.0
28/07:30pm 31.2 33.0 22.5 60 5.9 SW 17 28 9 15 1011.3 1011.3 0.0
28/07:00pm 31.4 33.5 19.4 49 7.9 NNE 7 9 4 5 1010.6 1010.6 0.0
28/06:30pm 31.6 31.7 19.2 47 8.1 NNE 17 20 9 11 1010.0 1010.0 0.0
28/06:00pm 32.1 32.1 19.0 45 8.6 NNE 17 24 9 13 1009.6 1009.6 0.0
28/05:30pm 33.0 32.8 19.8 45 8.7 NNE 20 26 11 14 1009.3 1009.3 0.0

Other Formats:

Comma delimited format used in spreadsheet applications
http://www.bom.gov.au/fwo/IDW60801/IDW60801.95307.axf

JavaScript Object Notation format (JSON) in row-major order
http://www.bom.gov.au/fwo/IDW60801/IDW60801.95307.json